PWSweather.com
Personal Weather Stations
Station Observations
KWABLAIN13
Ptl Weather, Blaine, WA

Ptl WeatherBlaine, WA

Lat: 48.997393, Lon: -122.748614

Elevation: 57

Station Type: Davis Advantage Pro 2

http://www.ptlnet.net

High Low Average
Temperature 45.2°F7.3°F 27.6°F-2.4°F 35.8°F2.1°F
Dew Point 31.4°F-0.3°F 24.5°F-4.2°F 28.4°F-2.0°F
Winds 9.0 mph -14.5 mph - Calm Calm 2.3 mph 3.7 mph
Wind Gusts 11.0 mph17.7 mph -- 4.1 mph6.6 mph
Humidity 96% 45% 76%
Pressure 30.16 in1021.30 in 30.04 in1017.30 in -
Precipitation 0.00 in0.00 in - -
Hour Temp Dew Point Humidity Winds Wind Gusts Pressure Precip Precip Rate Daily Precip Total
12:04 AM 29.5°F-1.4°C 28.0°F-2.2°C 94% Calm Calm -- 30.06 in1017.9 mb 0.00 in0.0 mm 0.00 in0.0 mm 0.00 in0.0 mm
12:10 AM 29.4°F-1.4°C 27.9°F-2.3°C 94% 1.0 mph NNE1.6 kmh NNE 2.0 mph3.2 kmh 30.06 in1017.9 mb 0.00 in0.0 mm 0.00 in0.0 mm 0.00 in0.0 mm
12:25 AM 29.7°F-1.3°C 28.5°F-1.9°C 95% 2.0 mph NNE3.2 kmh NNE 4.0 mph6.4 kmh 30.07 in1018.3 mb 0.00 in0.0 mm 0.00 in0.0 mm 0.00 in0.0 mm
12:30 AM 29.7°F-1.3°C 28.5°F-1.9°C 95% 3.0 mph NE4.8 kmh NE 4.0 mph6.4 kmh 30.07 in1018.3 mb 0.00 in0.0 mm 0.00 in0.0 mm 0.00 in0.0 mm
12:45 AM 30.5°F-0.8°C 29.5°F-1.4°C 96% 2.0 mph NE3.2 kmh NE 5.0 mph8.0 kmh 30.08 in1018.6 mb 0.00 in0.0 mm 0.00 in0.0 mm 0.00 in0.0 mm
12:50 AM 30.6°F-0.8°C 29.3°F-1.5°C 95% 3.0 mph NE4.8 kmh NE 3.0 mph4.8 kmh 30.08 in1018.6 mb 0.00 in0.0 mm 0.00 in0.0 mm 0.00 in0.0 mm
01:04 AM 30.8°F-0.7°C 29.5°F-1.4°C 95% 3.0 mph NE4.8 kmh NE 6.0 mph9.7 kmh 30.08 in1018.6 mb 0.00 in0.0 mm 0.00 in0.0 mm 0.00 in0.0 mm
01:10 AM 30.9°F-0.6°C 29.6°F-1.3°C 95% 4.0 mph NE6.4 kmh NE 4.0 mph6.4 kmh 30.08 in1018.6 mb 0.00 in0.0 mm 0.00 in0.0 mm 0.00 in0.0 mm
01:25 AM 31.1°F-0.5°C 29.8°F-1.2°C 95% 3.0 mph NE4.8 kmh NE 5.0 mph8.0 kmh 30.09 in1019.0 mb 0.00 in0.0 mm 0.00 in0.0 mm 0.00 in0.0 mm
01:29 AM 31.1°F-0.5°C 29.8°F-1.2°C 95% 3.0 mph NE4.8 kmh NE 5.0 mph8.0 kmh 30.10 in1019.3 mb 0.00 in0.0 mm 0.00 in0.0 mm 0.00 in0.0 mm
01:44 AM 31.0°F-0.6°C 29.7°F-1.3°C 95% 2.0 mph NE3.2 kmh NE 3.0 mph4.8 kmh 30.10 in1019.3 mb 0.00 in0.0 mm 0.00 in0.0 mm 0.00 in0.0 mm
01:50 AM 30.8°F-0.7°C 29.3°F-1.5°C 94% 2.0 mph NE3.2 kmh NE 2.0 mph3.2 kmh 30.10 in1019.3 mb 0.00 in0.0 mm 0.00 in0.0 mm 0.00 in0.0 mm
02:05 AM 30.9°F-0.6°C 29.4°F-1.4°C 94% 1.0 mph NE1.6 kmh NE 5.0 mph8.0 kmh 30.10 in1019.3 mb 0.00 in0.0 mm 0.00 in0.0 mm 0.00 in0.0 mm
02:10 AM 31.1°F-0.5°C 29.6°F-1.3°C 94% 3.0 mph NE4.8 kmh NE 6.0 mph9.7 kmh 30.10 in1019.3 mb 0.00 in0.0 mm 0.00 in0.0 mm 0.00 in0.0 mm
02:35 AM 30.7°F-0.7°C 28.9°F-1.7°C 93% 2.0 mph NE3.2 kmh NE 3.0 mph4.8 kmh 30.11 in1019.6 mb 0.00 in0.0 mm 0.00 in0.0 mm 0.00 in0.0 mm
02:40 AM 32.1°F0.1°C 30.3°F-0.9°C 93% 2.0 mph NE3.2 kmh NE 2.0 mph3.2 kmh 30.11 in1019.6 mb 0.00 in0.0 mm 0.00 in0.0 mm 0.00 in0.0 mm
02:55 AM 30.1°F-1.1°C 28.6°F-1.9°C 94% 3.0 mph NE4.8 kmh NE 4.0 mph6.4 kmh 30.11 in1019.6 mb 0.00 in0.0 mm 0.00 in0.0 mm 0.00 in0.0 mm
03:00 AM 30.0°F-1.1°C 28.5°F-1.9°C 94% 4.0 mph NE6.4 kmh NE 4.0 mph6.4 kmh 30.11 in1019.6 mb 0.00 in0.0 mm 0.00 in0.0 mm 0.00 in0.0 mm
03:15 AM 29.8°F-1.2°C 28.3°F-2.1°C 94% 4.0 mph NE6.4 kmh NE 4.0 mph6.4 kmh 30.11 in1019.6 mb 0.00 in0.0 mm 0.00 in0.0 mm 0.00 in0.0 mm
03:19 AM 29.8°F-1.2°C 28.3°F-2.1°C 94% 1.0 mph NE1.6 kmh NE 4.0 mph6.4 kmh 30.11 in1019.6 mb 0.00 in0.0 mm 0.00 in0.0 mm 0.00 in0.0 mm
03:35 AM 29.6°F-1.3°C 28.1°F-2.2°C 94% 2.0 mph NE3.2 kmh NE 4.0 mph6.4 kmh 30.12 in1020.0 mb 0.00 in0.0 mm 0.00 in0.0 mm 0.00 in0.0 mm
03:40 AM 29.6°F-1.3°C 28.1°F-2.2°C 94% 1.0 mph NE1.6 kmh NE 4.0 mph6.4 kmh 30.12 in1020.0 mb 0.00 in0.0 mm 0.00 in0.0 mm 0.00 in0.0 mm
03:54 AM 29.6°F-1.3°C 28.1°F-2.2°C 94% 1.0 mph NE1.6 kmh NE 3.0 mph4.8 kmh 30.13 in1020.3 mb 0.00 in0.0 mm 0.00 in0.0 mm 0.00 in0.0 mm
04:00 AM 29.6°F-1.3°C 28.1°F-2.2°C 94% 3.0 mph NE4.8 kmh NE 3.0 mph4.8 kmh 30.13 in1020.3 mb 0.00 in0.0 mm 0.00 in0.0 mm 0.00 in0.0 mm
04:15 AM 31.5°F-0.3°C 29.7°F-1.3°C 93% 3.0 mph NE4.8 kmh NE 3.0 mph4.8 kmh 30.13 in1020.3 mb 0.00 in0.0 mm 0.00 in0.0 mm 0.00 in0.0 mm
04:20 AM 31.6°F-0.2°C 29.8°F-1.2°C 93% 3.0 mph NE4.8 kmh NE 3.0 mph4.8 kmh 30.13 in1020.3 mb 0.00 in0.0 mm 0.00 in0.0 mm 0.00 in0.0 mm
04:35 AM 31.5°F-0.3°C 29.5°F-1.4°C 92% 3.0 mph NE4.8 kmh NE 3.0 mph4.8 kmh 30.12 in1020.0 mb 0.00 in0.0 mm 0.00 in0.0 mm 0.00 in0.0 mm
04:40 AM 31.6°F-0.2°C 29.6°F-1.3°C 92% 1.0 mph NE1.6 kmh NE 4.0 mph6.4 kmh 30.12 in1020.0 mb 0.00 in0.0 mm 0.00 in0.0 mm 0.00 in0.0 mm
04:55 AM 31.5°F-0.3°C 29.5°F-1.4°C 92% 3.0 mph NE4.8 kmh NE 3.0 mph4.8 kmh 30.12 in1020.0 mb 0.00 in0.0 mm 0.00 in0.0 mm 0.00 in0.0 mm
05:00 AM 31.5°F-0.3°C 29.5°F-1.4°C 92% 2.0 mph NE3.2 kmh NE 2.0 mph3.2 kmh 30.12 in1020.0 mb 0.00 in0.0 mm 0.00 in0.0 mm 0.00 in0.0 mm
05:15 AM 31.3°F-0.4°C 29.3°F-1.5°C 92% 2.0 mph NE3.2 kmh NE 4.0 mph6.4 kmh 30.12 in1020.0 mb 0.00 in0.0 mm 0.00 in0.0 mm 0.00 in0.0 mm
05:20 AM 31.2°F-0.4°C 28.9°F-1.7°C 91% 1.0 mph NE1.6 kmh NE 1.0 mph1.6 kmh 30.12 in1020.0 mb 0.00 in0.0 mm 0.00 in0.0 mm 0.00 in0.0 mm
05:35 AM 31.3°F-0.4°C 29.0°F-1.7°C 91% 1.0 mph NE1.6 kmh NE 3.0 mph4.8 kmh 30.13 in1020.3 mb 0.00 in0.0 mm 0.00 in0.0 mm 0.00 in0.0 mm
05:39 AM 27.6°F-2.4°C 25.8°F-3.4°C 93% 3.0 mph NE4.8 kmh NE 3.0 mph4.8 kmh 30.13 in1020.3 mb 0.00 in0.0 mm 0.00 in0.0 mm 0.00 in0.0 mm
05:55 AM 27.8°F-2.3°C 26.3°F-3.2°C 94% 2.0 mph NE3.2 kmh NE 4.0 mph6.4 kmh 30.14 in1020.7 mb 0.00 in0.0 mm 0.00 in0.0 mm 0.00 in0.0 mm
06:00 AM 27.9°F-2.3°C 26.4°F-3.1°C 94% 2.0 mph NE3.2 kmh NE 2.0 mph3.2 kmh 30.14 in1020.7 mb 0.00 in0.0 mm 0.00 in0.0 mm 0.00 in0.0 mm
06:15 AM 28.0°F-2.2°C 26.2°F-3.2°C 93% 3.0 mph NE4.8 kmh NE 4.0 mph6.4 kmh 30.14 in1020.7 mb 0.00 in0.0 mm 0.00 in0.0 mm 0.00 in0.0 mm
06:20 AM 28.0°F-2.2°C 26.2°F-3.2°C 93% 2.0 mph NE3.2 kmh NE 2.0 mph3.2 kmh 30.14 in1020.7 mb 0.00 in0.0 mm 0.00 in0.0 mm 0.00 in0.0 mm
06:35 AM 28.4°F-2.0°C 26.6°F-3.0°C 93% 1.0 mph NE1.6 kmh NE 4.0 mph6.4 kmh 30.14 in1020.7 mb 0.00 in0.0 mm 0.00 in0.0 mm 0.00 in0.0 mm
06:40 AM 28.4°F-2.0°C 26.6°F-3.0°C 93% 1.0 mph NE1.6 kmh NE 4.0 mph6.4 kmh 30.15 in1021.0 mb 0.00 in0.0 mm 0.00 in0.0 mm 0.00 in0.0 mm
06:55 AM 28.5°F-1.9°C 26.7°F-2.9°C 93% 1.0 mph NE1.6 kmh NE 4.0 mph6.4 kmh 30.14 in1020.7 mb 0.00 in0.0 mm 0.00 in0.0 mm 0.00 in0.0 mm
07:00 AM 28.7°F-1.8°C 26.7°F-2.9°C 92% 3.0 mph NE4.8 kmh NE 3.0 mph4.8 kmh 30.15 in1021.0 mb 0.00 in0.0 mm 0.00 in0.0 mm 0.00 in0.0 mm
07:45 AM 27.8°F-2.3°C 25.5°F-3.6°C 91% 1.0 mph NE1.6 kmh NE 3.0 mph4.8 kmh 30.15 in1021.0 mb 0.00 in0.0 mm 0.00 in0.0 mm 0.00 in0.0 mm
07:50 AM 27.7°F-2.4°C 25.4°F-3.7°C 91% 2.0 mph NE3.2 kmh NE 2.0 mph3.2 kmh 30.15 in1021.0 mb 0.00 in0.0 mm 0.00 in0.0 mm 0.00 in0.0 mm
08:10 AM 28.8°F-1.8°C 26.5°F-3.1°C 91% 3.0 mph NE4.8 kmh NE 4.0 mph6.4 kmh 30.15 in1021.0 mb 0.00 in0.0 mm 0.00 in0.0 mm 0.00 in0.0 mm
08:35 AM 30.7°F-0.7°C 27.6°F-2.4°C 88% 3.0 mph NE4.8 kmh NE 4.0 mph6.4 kmh 30.15 in1021.0 mb 0.00 in0.0 mm 0.00 in0.0 mm 0.00 in0.0 mm
08:40 AM 30.9°F-0.6°C 27.8°F-2.3°C 88% 1.0 mph NE1.6 kmh NE 2.0 mph3.2 kmh 30.16 in1021.3 mb 0.00 in0.0 mm 0.00 in0.0 mm 0.00 in0.0 mm
08:55 AM 31.7°F-0.2°C 28.3°F-2.1°C 87% 2.0 mph NE3.2 kmh NE 2.0 mph3.2 kmh 30.16 in1021.3 mb 0.00 in0.0 mm 0.00 in0.0 mm 0.00 in0.0 mm
09:00 AM 32.0°F0.0°C 28.3°F-2.1°C 86% 3.0 mph NE4.8 kmh NE 3.0 mph4.8 kmh 30.16 in1021.3 mb 0.00 in0.0 mm 0.00 in0.0 mm 0.00 in0.0 mm
09:15 AM 33.6°F0.9°C 28.7°F-1.8°C 82% 3.0 mph ENE4.8 kmh ENE 6.0 mph9.7 kmh 30.15 in1021.0 mb 0.00 in0.0 mm 0.00 in0.0 mm 0.00 in0.0 mm
09:19 AM 34.0°F1.1°C 28.5°F-1.9°C 80% 4.0 mph ENE6.4 kmh ENE 7.0 mph11.3 kmh 30.15 in1021.0 mb 0.00 in0.0 mm 0.00 in0.0 mm 0.00 in0.0 mm
09:35 AM 35.0°F1.7°C 29.2°F-1.6°C 79% Calm Calm 4.0 mph6.4 kmh 30.15 in1021.0 mb 0.00 in0.0 mm 0.00 in0.0 mm 0.00 in0.0 mm
09:39 AM 35.5°F1.9°C 29.0°F-1.7°C 77% Calm Calm 4.0 mph6.4 kmh 30.15 in1021.0 mb 0.00 in0.0 mm 0.00 in0.0 mm 0.00 in0.0 mm
09:55 AM 37.1°F2.8°C 27.9°F-2.3°C 69% 5.0 mph ENE8.0 kmh ENE 6.0 mph9.7 kmh 30.15 in1021.0 mb 0.00 in0.0 mm 0.00 in0.0 mm 0.00 in0.0 mm
10:00 AM 37.7°F3.2°C 28.1°F-2.2°C 68% 3.0 mph ENE4.8 kmh ENE 3.0 mph4.8 kmh 30.15 in1021.0 mb 0.00 in0.0 mm 0.00 in0.0 mm 0.00 in0.0 mm
10:15 AM 38.9°F3.8°C 27.4°F-2.6°C 63% 6.0 mph NE9.7 kmh NE 9.0 mph14.5 kmh 30.15 in1021.0 mb 0.00 in0.0 mm 0.00 in0.0 mm 0.00 in0.0 mm
10:20 AM 39.3°F4.1°C 27.0°F-2.8°C 61% 2.0 mph NE3.2 kmh NE 9.0 mph14.5 kmh 30.16 in1021.3 mb 0.00 in0.0 mm 0.00 in0.0 mm 0.00 in0.0 mm
10:35 AM 40.4°F4.7°C 26.0°F-3.3°C 56% 3.0 mph E4.8 kmh E 8.0 mph12.9 kmh 30.16 in1021.3 mb 0.00 in0.0 mm 0.00 in0.0 mm 0.00 in0.0 mm
10:40 AM 40.7°F4.8°C 26.2°F-3.2°C 56% 3.0 mph NE4.8 kmh NE 3.0 mph4.8 kmh 30.16 in1021.3 mb 0.00 in0.0 mm 0.00 in0.0 mm 0.00 in0.0 mm
10:55 AM 41.5°F5.3°C 27.4°F-2.6°C 57% 2.0 mph NE3.2 kmh NE 6.0 mph9.7 kmh 30.16 in1021.3 mb 0.00 in0.0 mm 0.00 in0.0 mm 0.00 in0.0 mm
10:59 AM 41.6°F5.3°C 26.7°F-2.9°C 55% 2.0 mph N3.2 kmh N 6.0 mph9.7 kmh 30.16 in1021.3 mb 0.00 in0.0 mm 0.00 in0.0 mm 0.00 in0.0 mm
11:15 AM 41.8°F5.4°C 26.8°F-2.9°C 55% 2.0 mph E3.2 kmh E 6.0 mph9.7 kmh 30.16 in1021.3 mb 0.00 in0.0 mm 0.00 in0.0 mm 0.00 in0.0 mm
11:20 AM 41.9°F5.5°C 25.6°F-3.6°C 52% 2.0 mph ENE3.2 kmh ENE 2.0 mph3.2 kmh 30.16 in1021.3 mb 0.00 in0.0 mm 0.00 in0.0 mm 0.00 in0.0 mm
11:34 AM 42.9°F6.1°C 26.5°F-3.1°C 52% 3.0 mph NE4.8 kmh NE 5.0 mph8.0 kmh 30.15 in1021.0 mb 0.00 in0.0 mm 0.00 in0.0 mm 0.00 in0.0 mm
11:40 AM 43.2°F6.2°C 25.4°F-3.7°C 49% 3.0 mph E4.8 kmh E 5.0 mph8.0 kmh 30.15 in1021.0 mb 0.00 in0.0 mm 0.00 in0.0 mm 0.00 in0.0 mm
11:55 AM 43.9°F6.6°C 24.5°F-4.2°C 46% 2.0 mph E3.2 kmh E 11.0 mph17.7 kmh 30.15 in1021.0 mb 0.00 in0.0 mm 0.00 in0.0 mm 0.00 in0.0 mm
12:00 PM 44.0°F6.7°C 25.6°F-3.6°C 48% 4.0 mph E6.4 kmh E 11.0 mph17.7 kmh 30.15 in1021.0 mb 0.00 in0.0 mm 0.00 in0.0 mm 0.00 in0.0 mm
12:14 PM 44.4°F6.9°C 24.9°F-3.9°C 46% 1.0 mph N1.6 kmh N 7.0 mph11.3 kmh 30.14 in1020.7 mb 0.00 in0.0 mm 0.00 in0.0 mm 0.00 in0.0 mm
12:20 PM 44.7°F7.1°C 24.7°F-4.1°C 45% 2.0 mph ESE3.2 kmh ESE 7.0 mph11.3 kmh 30.14 in1020.7 mb 0.00 in0.0 mm 0.00 in0.0 mm 0.00 in0.0 mm
12:34 PM 45.1°F7.3°C 30.4°F-0.9°C 56% 1.0 mph W1.6 kmh W 5.0 mph8.0 kmh 30.13 in1020.3 mb 0.00 in0.0 mm 0.00 in0.0 mm 0.00 in0.0 mm
12:40 PM 45.2°F7.3°C 30.9°F-0.6°C 57% 5.0 mph SW8.0 kmh SW 6.0 mph9.7 kmh 30.13 in1020.3 mb 0.00 in0.0 mm 0.00 in0.0 mm 0.00 in0.0 mm
12:55 PM 44.8°F7.1°C 30.9°F-0.6°C 58% 4.0 mph W6.4 kmh W 7.0 mph11.3 kmh 30.12 in1020.0 mb 0.00 in0.0 mm 0.00 in0.0 mm 0.00 in0.0 mm
01:00 PM 44.9°F7.2°C 31.0°F-0.6°C 58% 3.0 mph SW4.8 kmh SW 7.0 mph11.3 kmh 30.12 in1020.0 mb 0.00 in0.0 mm 0.00 in0.0 mm 0.00 in0.0 mm
01:15 PM 44.3°F6.8°C 30.0°F-1.1°C 57% 7.0 mph W11.3 kmh W 11.0 mph17.7 kmh 30.11 in1019.6 mb 0.00 in0.0 mm 0.00 in0.0 mm 0.00 in0.0 mm
01:20 PM 44.1°F6.7°C 29.0°F-1.7°C 55% 5.0 mph WSW8.0 kmh WSW 5.0 mph8.0 kmh 30.11 in1019.6 mb 0.00 in0.0 mm 0.00 in0.0 mm 0.00 in0.0 mm
01:35 PM 43.6°F6.4°C 29.4°F-1.4°C 57% 5.0 mph WSW8.0 kmh WSW 9.0 mph14.5 kmh 30.11 in1019.6 mb 0.00 in0.0 mm 0.00 in0.0 mm 0.00 in0.0 mm
01:40 PM 43.7°F6.5°C 29.9°F-1.2°C 58% 9.0 mph WSW14.5 kmh WSW 9.0 mph14.5 kmh 30.11 in1019.6 mb 0.00 in0.0 mm 0.00 in0.0 mm 0.00 in0.0 mm
01:55 PM 43.4°F6.3°C 29.2°F-1.6°C 57% 2.0 mph W3.2 kmh W 7.0 mph11.3 kmh 30.11 in1019.6 mb 0.00 in0.0 mm 0.00 in0.0 mm 0.00 in0.0 mm
02:00 PM 43.3°F6.3°C 29.1°F-1.6°C 57% 7.0 mph WSW11.3 kmh WSW 8.0 mph12.9 kmh 30.11 in1019.6 mb 0.00 in0.0 mm 0.00 in0.0 mm 0.00 in0.0 mm
02:15 PM 43.3°F6.3°C 28.7°F-1.8°C 56% 7.0 mph SW11.3 kmh SW 9.0 mph14.5 kmh 30.11 in1019.6 mb 0.00 in0.0 mm 0.00 in0.0 mm 0.00 in0.0 mm
02:30 PM 43.3°F6.3°C 29.1°F-1.6°C 57% 7.0 mph WSW11.3 kmh WSW 7.0 mph11.3 kmh 30.11 in1019.6 mb 0.00 in0.0 mm 0.00 in0.0 mm 0.00 in0.0 mm
02:45 PM 43.9°F6.6°C 29.2°F-1.6°C 56% 1.0 mph NW1.6 kmh NW 7.0 mph11.3 kmh 30.10 in1019.3 mb 0.00 in0.0 mm 0.00 in0.0 mm 0.00 in0.0 mm
02:50 PM 44.0°F6.7°C 29.3°F-1.5°C 56% 3.0 mph W4.8 kmh W 3.0 mph4.8 kmh 30.10 in1019.3 mb 0.00 in0.0 mm 0.00 in0.0 mm 0.00 in0.0 mm
03:05 PM 44.3°F6.8°C 28.7°F-1.8°C 54% 5.0 mph WSW8.0 kmh WSW 7.0 mph11.3 kmh 30.09 in1019.0 mb 0.00 in0.0 mm 0.00 in0.0 mm 0.00 in0.0 mm
03:10 PM 44.3°F6.8°C 29.2°F-1.6°C 55% 4.0 mph WSW6.4 kmh WSW 4.0 mph6.4 kmh 30.09 in1019.0 mb 0.00 in0.0 mm 0.00 in0.0 mm 0.00 in0.0 mm
03:25 PM 44.1°F6.7°C 30.3°F-0.9°C 58% 8.0 mph WSW12.9 kmh WSW 8.0 mph12.9 kmh 30.10 in1019.3 mb 0.00 in0.0 mm 0.00 in0.0 mm 0.00 in0.0 mm
03:29 PM 44.0°F6.7°C 30.2°F-1.0°C 58% 3.0 mph WNW4.8 kmh WNW 8.0 mph12.9 kmh 30.10 in1019.3 mb 0.00 in0.0 mm 0.00 in0.0 mm 0.00 in0.0 mm
03:45 PM 43.5°F6.4°C 31.4°F-0.3°C 62% 3.0 mph W4.8 kmh W 7.0 mph11.3 kmh 30.09 in1019.0 mb 0.00 in0.0 mm 0.00 in0.0 mm 0.00 in0.0 mm
03:50 PM 43.3°F6.3°C 31.2°F-0.4°C 62% 3.0 mph W4.8 kmh W 5.0 mph8.0 kmh 30.09 in1019.0 mb 0.00 in0.0 mm 0.00 in0.0 mm 0.00 in0.0 mm
04:04 PM 42.4°F5.8°C 30.3°F-0.9°C 62% 4.0 mph W6.4 kmh W 7.0 mph11.3 kmh 30.09 in1019.0 mb 0.00 in0.0 mm 0.00 in0.0 mm 0.00 in0.0 mm
04:10 PM 42.3°F5.7°C 31.0°F-0.6°C 64% 4.0 mph W6.4 kmh W 8.0 mph12.9 kmh 30.09 in1019.0 mb 0.00 in0.0 mm 0.00 in0.0 mm 0.00 in0.0 mm
04:25 PM 41.8°F5.4°C 30.5°F-0.8°C 64% 3.0 mph W4.8 kmh W 7.0 mph11.3 kmh 30.09 in1019.0 mb 0.00 in0.0 mm 0.00 in0.0 mm 0.00 in0.0 mm
04:30 PM 41.7°F5.4°C 30.4°F-0.9°C 64% 4.0 mph W6.4 kmh W 7.0 mph11.3 kmh 30.09 in1019.0 mb 0.00 in0.0 mm 0.00 in0.0 mm 0.00 in0.0 mm
04:45 PM 41.5°F5.3°C 29.5°F-1.4°C 62% 1.0 mph WSW1.6 kmh WSW 4.0 mph6.4 kmh 30.08 in1018.6 mb 0.00 in0.0 mm 0.00 in0.0 mm 0.00 in0.0 mm
04:50 PM 41.4°F5.2°C 29.8°F-1.2°C 63% 3.0 mph WSW4.8 kmh WSW 3.0 mph4.8 kmh 30.08 in1018.6 mb 0.00 in0.0 mm 0.00 in0.0 mm 0.00 in0.0 mm
05:05 PM 40.9°F4.9°C 29.3°F-1.5°C 63% 3.0 mph WNW4.8 kmh WNW 5.0 mph8.0 kmh 30.08 in1018.6 mb 0.00 in0.0 mm 0.00 in0.0 mm 0.00 in0.0 mm
05:10 PM 40.8°F4.9°C 29.6°F-1.3°C 64% 3.0 mph W4.8 kmh W 6.0 mph9.7 kmh 30.08 in1018.6 mb 0.00 in0.0 mm 0.00 in0.0 mm 0.00 in0.0 mm
05:24 PM 40.4°F4.7°C 28.4°F-2.0°C 62% 2.0 mph W3.2 kmh W 3.0 mph4.8 kmh 30.08 in1018.6 mb 0.00 in0.0 mm 0.00 in0.0 mm 0.00 in0.0 mm
05:29 PM 40.2°F4.6°C 28.6°F-1.9°C 63% 1.0 mph W1.6 kmh W 3.0 mph4.8 kmh 30.08 in1018.6 mb 0.00 in0.0 mm 0.00 in0.0 mm 0.00 in0.0 mm
05:45 PM 39.7°F4.3°C 28.9°F-1.7°C 65% 1.0 mph W1.6 kmh W 2.0 mph3.2 kmh 30.08 in1018.6 mb 0.00 in0.0 mm 0.00 in0.0 mm 0.00 in0.0 mm
05:50 PM 39.7°F4.3°C 28.9°F-1.7°C 65% 1.0 mph W1.6 kmh W 2.0 mph3.2 kmh 30.08 in1018.6 mb 0.00 in0.0 mm 0.00 in0.0 mm 0.00 in0.0 mm
06:05 PM 39.0°F3.9°C 28.6°F-1.9°C 66% Calm Calm 1.0 mph1.6 kmh 30.07 in1018.3 mb 0.00 in0.0 mm 0.00 in0.0 mm 0.00 in0.0 mm
06:10 PM 38.8°F3.8°C 28.4°F-2.0°C 66% Calm Calm -- 30.07 in1018.3 mb 0.00 in0.0 mm 0.00 in0.0 mm 0.00 in0.0 mm
06:25 PM 37.9°F3.3°C 28.3°F-2.1°C 68% Calm Calm -- 30.08 in1018.6 mb 0.00 in0.0 mm 0.00 in0.0 mm 0.00 in0.0 mm
06:30 PM 37.4°F3.0°C 28.5°F-1.9°C 70% Calm Calm -- 30.07 in1018.3 mb 0.00 in0.0 mm 0.00 in0.0 mm 0.00 in0.0 mm
06:45 PM 36.6°F2.6°C 28.4°F-2.0°C 72% Calm Calm -- 30.08 in1018.6 mb 0.00 in0.0 mm 0.00 in0.0 mm 0.00 in0.0 mm
06:50 PM 36.4°F2.4°C 28.3°F-2.1°C 72% Calm Calm -- 30.08 in1018.6 mb 0.00 in0.0 mm 0.00 in0.0 mm 0.00 in0.0 mm
07:05 PM 35.7°F2.1°C 28.2°F-2.1°C 74% Calm Calm -- 30.08 in1018.6 mb 0.00 in0.0 mm 0.00 in0.0 mm 0.00 in0.0 mm
07:10 PM 35.5°F1.9°C 28.4°F-2.0°C 75% Calm Calm -- 30.08 in1018.6 mb 0.00 in0.0 mm 0.00 in0.0 mm 0.00 in0.0 mm
07:25 PM 35.0°F1.7°C 28.2°F-2.1°C 76% Calm Calm -- 30.09 in1019.0 mb 0.00 in0.0 mm 0.00 in0.0 mm 0.00 in0.0 mm
07:30 PM 34.7°F1.5°C 28.2°F-2.1°C 77% Calm Calm -- 30.09 in1019.0 mb 0.00 in0.0 mm 0.00 in0.0 mm 0.00 in0.0 mm
07:45 PM 34.0°F1.1°C 27.9°F-2.3°C 78% Calm Calm -- 30.09 in1019.0 mb 0.00 in0.0 mm 0.00 in0.0 mm 0.00 in0.0 mm
07:50 PM 33.7°F0.9°C 27.6°F-2.4°C 78% Calm Calm -- 30.09 in1019.0 mb 0.00 in0.0 mm 0.00 in0.0 mm 0.00 in0.0 mm
08:05 PM 33.2°F0.7°C 28.0°F-2.2°C 81% 1.0 mph W1.6 kmh W 3.0 mph4.8 kmh 30.08 in1018.6 mb 0.00 in0.0 mm 0.00 in0.0 mm 0.00 in0.0 mm
08:10 PM 33.2°F0.7°C 28.0°F-2.2°C 81% 1.0 mph W1.6 kmh W 2.0 mph3.2 kmh 30.08 in1018.6 mb 0.00 in0.0 mm 0.00 in0.0 mm 0.00 in0.0 mm
08:25 PM 33.1°F0.6°C 27.9°F-2.3°C 81% 1.0 mph NNW1.6 kmh NNW 2.0 mph3.2 kmh 30.07 in1018.3 mb 0.00 in0.0 mm 0.00 in0.0 mm 0.00 in0.0 mm
08:29 PM 33.1°F0.6°C 27.9°F-2.3°C 81% Calm Calm 2.0 mph3.2 kmh 30.07 in1018.3 mb 0.00 in0.0 mm 0.00 in0.0 mm 0.00 in0.0 mm
08:45 PM 33.2°F0.7°C 28.0°F-2.2°C 81% Calm Calm -- 30.07 in1018.3 mb 0.00 in0.0 mm 0.00 in0.0 mm 0.00 in0.0 mm
08:50 PM 33.1°F0.6°C 27.9°F-2.3°C 81% Calm Calm -- 30.07 in1018.3 mb 0.00 in0.0 mm 0.00 in0.0 mm 0.00 in0.0 mm
09:05 PM 33.0°F0.6°C 27.8°F-2.3°C 81% 1.0 mph NNW1.6 kmh NNW 3.0 mph4.8 kmh 30.07 in1018.3 mb 0.00 in0.0 mm 0.00 in0.0 mm 0.00 in0.0 mm
09:10 PM 33.0°F0.6°C 27.8°F-2.3°C 81% 2.0 mph NNW3.2 kmh NNW 2.0 mph3.2 kmh 30.07 in1018.3 mb 0.00 in0.0 mm 0.00 in0.0 mm 0.00 in0.0 mm
09:25 PM 33.3°F0.7°C 27.8°F-2.3°C 80% 3.0 mph ESE4.8 kmh ESE 5.0 mph8.0 kmh 30.07 in1018.3 mb 0.00 in0.0 mm 0.00 in0.0 mm 0.00 in0.0 mm
09:30 PM 33.5°F0.8°C 28.0°F-2.2°C 80% 3.0 mph ESE4.8 kmh ESE 5.0 mph8.0 kmh 30.07 in1018.3 mb 0.00 in0.0 mm 0.00 in0.0 mm 0.00 in0.0 mm
09:45 PM 34.3°F1.3°C 28.2°F-2.1°C 78% 4.0 mph ESE6.4 kmh ESE 5.0 mph8.0 kmh 30.06 in1017.9 mb 0.00 in0.0 mm 0.00 in0.0 mm 0.00 in0.0 mm
09:50 PM 34.6°F1.4°C 28.5°F-1.9°C 78% 2.0 mph ESE3.2 kmh ESE 2.0 mph3.2 kmh 30.06 in1017.9 mb 0.00 in0.0 mm 0.00 in0.0 mm 0.00 in0.0 mm
10:05 PM 35.2°F1.8°C 28.4°F-2.0°C 76% 2.0 mph ESE3.2 kmh ESE 4.0 mph6.4 kmh 30.06 in1017.9 mb 0.00 in0.0 mm 0.00 in0.0 mm 0.00 in0.0 mm
10:09 PM 35.3°F1.8°C 28.2°F-2.1°C 75% 1.0 mph ESE1.6 kmh ESE 4.0 mph6.4 kmh 30.06 in1017.9 mb 0.00 in0.0 mm 0.00 in0.0 mm 0.00 in0.0 mm
10:25 PM 35.3°F1.8°C 28.2°F-2.1°C 75% 1.0 mph ESE1.6 kmh ESE 3.0 mph4.8 kmh 30.05 in1017.6 mb 0.00 in0.0 mm 0.00 in0.0 mm 0.00 in0.0 mm
10:29 PM 35.2°F1.8°C 28.1°F-2.2°C 75% Calm Calm 3.0 mph4.8 kmh 30.06 in1017.9 mb 0.00 in0.0 mm 0.00 in0.0 mm 0.00 in0.0 mm
10:45 PM 34.8°F1.6°C 28.0°F-2.2°C 76% 1.0 mph ESE1.6 kmh ESE 2.0 mph3.2 kmh 30.05 in1017.6 mb 0.00 in0.0 mm 0.00 in0.0 mm 0.00 in0.0 mm
10:50 PM 34.7°F1.5°C 27.9°F-2.3°C 76% Calm Calm 3.0 mph4.8 kmh 30.05 in1017.6 mb 0.00 in0.0 mm 0.00 in0.0 mm 0.00 in0.0 mm
11:05 PM 34.6°F1.4°C 28.1°F-2.2°C 77% 2.0 mph ESE3.2 kmh ESE 4.0 mph6.4 kmh 30.04 in1017.3 mb 0.00 in0.0 mm 0.00 in0.0 mm 0.00 in0.0 mm
11:10 PM 34.6°F1.4°C 28.1°F-2.2°C 77% 2.0 mph ESE3.2 kmh ESE 4.0 mph6.4 kmh 30.04 in1017.3 mb 0.00 in0.0 mm 0.00 in0.0 mm 0.00 in0.0 mm
11:25 PM 34.5°F1.4°C 28.1°F-2.2°C 77% 3.0 mph ESE4.8 kmh ESE 4.0 mph6.4 kmh 30.04 in1017.3 mb 0.00 in0.0 mm 0.00 in0.0 mm 0.00 in0.0 mm
11:30 PM 34.6°F1.4°C 28.1°F-2.2°C 77% 2.0 mph ESE3.2 kmh ESE 4.0 mph6.4 kmh 30.04 in1017.3 mb 0.00 in0.0 mm 0.00 in0.0 mm 0.00 in0.0 mm
11:44 PM 34.6°F1.4°C 28.1°F-2.2°C 77% 1.0 mph ESE1.6 kmh ESE 3.0 mph4.8 kmh 30.04 in1017.3 mb 0.00 in0.0 mm 0.00 in0.0 mm 0.00 in0.0 mm
11:50 PM 34.5°F1.4°C 28.1°F-2.2°C 77% 1.0 mph ESE1.6 kmh ESE 1.0 mph1.6 kmh 30.04 in1017.3 mb 0.00 in0.0 mm 0.00 in0.0 mm 0.00 in0.0 mm